CRB7 weather

Cardinal Aviation Seaplane Base
Rivière Blanche, Quebec, Canada

Public forecast

Using degrees Celsius for public forecast. Weather courtesy of forecast.io.

Closest aviation weather report (METAR) to Cardinal Aviation Seaplane Base

Report is more than 6 hours old.

Closest report is Ottawa / Gatineau Airport, 3.1 nm (5.8 km) ESE. Retrieved 2020/07/05 01:00 UTC (7 hours ago):

CYND 050100Z 35003KT 15SM FEW100 SCT180 BKN250 21/09 A2993 RMK AC2AC2CI1 LAST STFD OBS/NXT 051100Z SLP137 DENSITY ALT 1000FT

Closest aviation forecast (TAF) to Cardinal Aviation Seaplane Base

Forecast is more than 12 hours old.

Closest forecast is Ottawa / Gatineau Airport, 3.1 nm (5.8 km) ESE. Retrieved 2020/07/04 18:00 UTC (14 hours ago):

TAF CYND 041738Z 0418/0501 35008KT P6SM FEW250 FM042000 33008KT P6SM SCT150 BECMG 0423/0501 VRB03KT RMK NXT FCST WILL BE ISSUED AT 051245Z